Friday, February 23, 2018, 6:33 PM GMT
Back to Local

CWEP, East Point, P. E. I

Location: , , Canada Lat: 46.45
Local Time: 6:33 PM GMT (18:33 GMT) Lon: -61.967
Time Zone: GMT Elev: 36 ft

Show me the last for .
Show Decoded

2018-02-23 18:00 METAR CWEP 231800Z AUTO 30013KT M05/M10 RMK AO1 SOG 11 6020 SLP362 T10541104 =
2018-02-23 17:00 METAR CWEP 231700Z AUTO 30011KT M06/M12 RMK AO1 SOG 11 8019 SLP366 T10581115 =
2018-02-23 16:00 METAR CWEP 231600Z AUTO 30010KT M06/M14 RMK AO1 SOG 11 8008 SLP375 T10571137 =
2018-02-23 15:00 METAR CWEP 231500Z AUTO 30010KT M06/M12 RMK AO1 SOG 11 7004 SLP382 T10621115 =
2018-02-23 14:00 METAR CWEP 231400Z AUTO 31009KT M07/M12 RMK AO1 SOG 11 1005 SLP385 T10651118 =
2018-02-23 13:00 METAR CWEP 231300Z AUTO 32010KT M07/M12 RMK AO1 SOG 11 0003 SLP383 T10701123 =
2018-02-23 12:00 METAR CWEP 231200Z AUTO 33008KT M07/M12 RMK AO1 SOG 10 3008 SLP386 T10711116 =
2018-02-23 11:00 METAR CWEP 231100Z AUTO 32010KT M08/M11 RMK AO1 SOG 10 1008 PK WND 32018/1002
                 SLP380 T10781113 =
2018-02-23 10:00 METAR CWEP 231000Z AUTO 33013KT M08/M11 RMK AO1 SOG 10 1011 PK WND 32020/0909
                 SLP380 T10761114 =
2018-02-23 09:00 METAR CWEP 230900Z AUTO 32016KT M08/M12 RMK AO1 SOG 10 3012 PK WND 32025/0808
                 SLP378 T10771122 =
2018-02-23 08:00 METAR CWEP 230800Z AUTO 32018G23KT M07/M12 RMK AO1 SOG 10 1015 PK WND 33024/0740
                 SLP372 T10731121 =
2018-02-23 07:00 METAR CWEP 230700Z AUTO 34014KT M06/M10 RMK AO1 SOG 10 1020 PK WND 34017/0646
                 SLP369 T10621097 =
2018-02-23 06:00 METAR CWEP 230600Z AUTO 35011KT M07/M09 RMK AO1 SOG 10 3020 PK WND 00018/0516
                 SLP366 T10651091 =
2018-02-23 05:00 METAR CWEP 230500Z AUTO 36013KT M06/M09 RMK AO1 SOG 10 3009 PK WND 32022/0425
                 SLP357 T10631087 =
2018-02-23 04:00 METAR CWEP 230400Z AUTO 29015KT M05/M09 RMK AO1 SOG 10 3001 PK WND 29018/0355
                 SLP349 T10541089 =
2018-02-23 03:00 METAR CWEP 230300Z AUTO 27008KT M06/M09 RMK AO1 SOG 10 8003 SLP346 T10581086 =
2018-02-23 02:00 METAR CWEP 230200Z AUTO 29010KT M06/M09 RMK AO1 SOG 10 6001 SLP348 T10601087 =
2018-02-23 01:00 METAR CWEP 230100Z AUTO 29010KT M06/M09 RMK AO1 SOG 10 8001 SLP348 T10621094 =
2018-02-23 00:00 METAR CWEP 230000Z AUTO 30011KT M06/M10 RMK AO1 SOG 10 1004 SLP349 T10641097 =
2018-02-22 23:00 METAR CWEP 222300Z AUTO 31010KT M07/M09 RMK AO1 SOG 10 1007 PK WND 29017/2221
                 SLP349 T10671094 =
2018-02-22 22:00 METAR CWEP 222200Z AUTO 30010G16KT M07/M10 RMK AO1 SOG 11 3007 SLP349 T10711101
                 =
2018-02-22 21:00 METAR CWEP 222100Z AUTO 31012KT M08/M11 RMK AO1 SOG 11 2006 PK WND 31017/2000
                 SLP345 T10771114 =
2018-02-22 20:00 METAR CWEP 222000Z AUTO 31013G19KT M08/M12 RMK AO1 SOG 11 6004 PK WND 31019/1953
                 SLP342 T10781117 =
2018-02-22 19:00 METAR CWEP 221900Z AUTO 32015KT M08/M12 RMK AO1 SOG 11 1002 PK WND 32022/1833
                 SLP342 T10781120 =

Support USWX by starting your Amazon purchase here.